Thayne, WY (83127)

8:59 PM MST on November 19, 2017 (GMT -0700)
Duffin, Circle | | Change Station

Elev 6063 ft 42.90 °N, 110.99 °W | Updated 1 minute ago

Clear
Clear
25.2 °F
Feels Like 17 °F
N
7.0
Wind Variable Wind from SE

Today
High -- | Low -- °F
--% Chance of Precip.
Yesterday
High -- | Low -- °F
Precip. -- in
Pressure 30.09 in
Visibility 10.0 miles
Clouds Clear
Windchill 17 °F
Dew Point 21 °F
Humidity 86%
Rainfall 0.05 in
Snow Depth Not available.
7:21 AM 4:56 PM
Waxing Crescent, 3% visible
METAR KAFO 200355Z AUTO 00000KT 10SM CLR M07/M08 A3009 RMK AO2
Pressure 30.09 in
Visibility 10.0 miles
Clouds Clear
Windchill 17 °F
Dew Point 21 °F
Humidity 86%
Rainfall 0.05 in
Snow Depth Not available.
7:21 AM 4:56 PM
Waxing Crescent, 3% visible
METAR KAFO 200355Z AUTO 00000KT 10SM CLR M07/M08 A3009 RMK AO2

Get Severe Weather Alerts

Thanks for signing up!

Be on the lookout for a verification email in your inbox.

You'll start receiving the daily forecast at 6 AM.

×

10-Day Weather Forecast

Almanac

Astronomy

Nov. 19, 2017 Rise Set
Actual Time
Civil Twilight
Nautical Twilight
Astronomical Twilight
Moon
Length of Visible Light
Length of Day
Tomorrow will be .
, % of the Moon is Illuminated

Today's Extremes

State Highs State Lows

Community

WunderPhotos

Category 6

Welcome to Category 6. This is the collective home for Weather Underground's featured writeups by Dr. Jeff Masters (right), Bob Henson (left), Chris Burt, and other regular contributors.

Nearby

Air Quality

  Air Quality AQ Index Pollutant
Not available.

Snow Depth

Station Depth Elevation

Earthquake Activity

City Distance Mag. Time & Date
Minimum magnitude displayed is 2.5.

Coastal Water Temperatures

Place Temperature

Stations

Nearby Weather Stations

Station Location Temp. Windchill Dew Point Humidity Wind Precip. Elev Updated Type
                   

Watches & Warnings

There are currently no watches in effect.